Time;durP1;ratioP1;P1;durP2;ratioP2;P2;SDS_P1;SDS_P2;PMS_P1;PMS_P2;Temp;Humidity;BMP_temperature;BMP_pressure;BME280_temperature;BME280_humidity;BME280_pressure;Samples;Min_cycle;Max_cycle;Signal;HPM_P1;HPM_P2
2022/09/04 00:01:37;;;;;;;10.00;8.27;;;28.20;99.90;;;;;;4209842;28;20773;-77
2022/09/04 00:04:00;;;;;;;8.50;7.43;;;28.30;99.90;;;;;;4191731;28;20040;-76
2022/09/04 00:06:09;;;;;;;8.57;7.68;;;28.30;99.90;;;;;;4209872;28;20050;-76
2022/09/04 00:08:46;;;;;;;10.68;8.07;;;28.30;99.90;;;;;;4208570;28;20082;-76
2022/09/04 00:11:43;;;;;;;9.05;7.63;;;28.30;99.90;;;;;;4206547;28;20063;-76
2022/09/04 00:13:56;;;;;;;9.73;8.00;;;28.30;99.90;;;;;;4203113;28;20105;-71
2022/09/04 00:16:36;;;;;;;10.35;8.32;;;28.30;99.90;;;;;;4206398;28;20044;-72
2022/09/04 00:19:13;;;;;;;10.63;8.45;;;28.40;99.90;;;;;;4207342;28;20487;-76
2022/09/04 00:21:45;;;;;;;15.75;9.25;;;28.40;99.90;;;;;;4210019;28;20044;-77
2022/09/04 00:24:04;;;;;;;9.63;8.60;;;28.40;99.90;;;;;;4213002;28;20522;-76
2022/09/04 00:26:28;;;;;;;10.93;8.77;;;28.40;99.90;;;;;;4215584;28;20462;-77
2022/09/04 00:28:37;;;;;;;10.73;8.50;;;28.30;99.90;;;;;;4215343;28;20040;-78
2022/09/04 00:30:49;;;;;;;9.65;8.52;;;28.30;99.90;;;;;;4212316;28;20093;-77
2022/09/04 00:33:34;;;;;;;11.48;9.15;;;28.40;99.90;;;;;;4198559;28;20047;-74
2022/09/04 00:36:01;;;;;;;12.15;10.73;;;28.40;99.90;;;;;;4205626;28;20044;-73
2022/09/04 00:38:58;;;;;;;11.45;9.93;;;28.40;99.90;;;;;;4192002;28;20040;-76
2022/09/04 00:41:41;;;;;;;11.50;10.02;;;28.40;99.90;;;;;;4207288;28;20044;-76
2022/09/04 00:44:10;;;;;;;12.05;10.73;;;28.50;99.90;;;;;;4204364;28;20044;-76
2022/09/04 00:46:40;;;;;;;12.27;11.07;;;28.50;99.90;;;;;;4208099;28;20580;-75
2022/09/04 00:49:26;;;;;;;13.32;10.60;;;28.50;99.90;;;;;;4205014;28;20043;-73
2022/09/04 00:51:59;;;;;;;12.68;10.30;;;28.50;99.90;;;;;;4191223;28;20411;-72
2022/09/04 00:54:30;;;;;;;13.95;11.30;;;28.50;99.90;;;;;;4208089;28;20055;-73
2022/09/04 00:57:12;;;;;;;13.73;12.27;;;28.50;99.90;;;;;;4173289;28;20068;-74
2022/09/04 00:59:52;;;;;;;14.68;12.15;;;28.60;99.90;;;;;;4207152;28;20190;-74
2022/09/04 01:02:20;;;;;;;13.43;11.50;;;28.60;99.90;;;;;;4210638;28;20043;-74
2022/09/04 01:04:51;;;;;;;15.23;11.40;;;28.60;99.90;;;;;;4195470;28;20043;-75
2022/09/04 01:07:44;;;;;;;15.32;12.45;;;28.70;99.90;;;;;;4210349;28;20097;-74
2022/09/04 01:10:03;;;;;;;14.07;12.63;;;28.70;99.90;;;;;;4209940;28;20687;-75
2022/09/04 01:12:33;;;;;;;15.63;13.35;;;28.80;99.90;;;;;;4210352;28;20044;-74
2022/09/04 01:15:16;;;;;;;13.57;12.18;;;28.80;99.90;;;;;;4207215;28;20051;-74
2022/09/04 01:17:57;;;;;;;14.73;12.07;;;28.90;99.90;;;;;;4208433;28;20052;-74
2022/09/04 01:20:34;;;;;;;13.73;12.23;;;29.10;99.90;;;;;;4208786;28;20040;-75
2022/09/04 01:23:20;;;;;;;14.77;12.77;;;29.10;99.90;;;;;;4209265;28;20483;-75
2022/09/04 01:25:49;;;;;;;17.02;11.90;;;29.20;99.90;;;;;;4209553;28;20040;-75
2022/09/04 01:28:30;;;;;;;15.93;12.30;;;29.30;99.90;;;;;;4208355;28;20044;-75
2022/09/04 01:31:07;;;;;;;12.63;11.43;;;29.40;99.90;;;;;;4210412;28;20271;-76
2022/09/04 01:33:25;;;;;;;14.45;12.95;;;29.30;99.90;;;;;;4210401;28;20052;-75
2022/09/04 01:36:01;;;;;;;13.43;12.05;;;29.20;99.90;;;;;;4210414;28;20624;-75
2022/09/04 01:38:22;;;;;;;13.10;11.80;;;29.30;99.90;;;;;;4205920;28;20108;-75
2022/09/04 01:40:52;;;;;;;14.67;11.20;;;29.30;99.90;;;;;;4208921;28;20040;-75
2022/09/04 01:43:04;;;;;;;13.30;11.93;;;29.40;99.90;;;;;;4206993;28;20443;-75
2022/09/04 01:45:10;;;;;;;14.90;12.10;;;29.30;99.90;;;;;;4210560;28;20036;-75
2022/09/04 01:47:39;;;;;;;13.27;11.90;;;29.40;99.90;;;;;;4206435;28;20052;-76
2022/09/04 01:50:03;;;;;;;13.63;12.30;;;29.40;99.90;;;;;;4209324;28;20048;-75
2022/09/04 01:52:35;;;;;;;15.52;12.35;;;29.50;99.90;;;;;;4211131;28;20457;-77
2022/09/04 01:55:00;;;;;;;;;;;29.60;99.90;;;;;;4211383;28;20066;-76
2022/09/04 01:57:30;;;;;;;12.88;10.93;;;29.80;99.90;;;;;;4207352;28;19924;-76
2022/09/04 01:59:59;;;;;;;12.68;11.18;;;29.90;99.90;;;;;;4209741;28;21296;-76
2022/09/04 02:02:36;;;;;;;12.88;11.68;;;30.00;99.90;;;;;;4207230;28;20036;-75
2022/09/04 02:05:07;;;;;;;13.60;11.55;;;30.00;99.90;;;;;;4205712;28;20513;-76
2022/09/04 02:07:47;;;;;;;13.23;11.75;;;30.10;99.90;;;;;;4208071;28;20127;-74
2022/09/04 02:10:02;;;;;;;14.02;12.60;;;30.20;99.90;;;;;;4207598;28;20051;-76
2022/09/04 02:12:34;;;;;;;13.18;11.88;;;30.30;99.90;;;;;;4209146;28;20048;-75
2022/09/04 02:15:03;;;;;;;14.23;12.77;;;30.30;99.90;;;;;;4209571;28;20050;-76
2022/09/04 02:17:20;;;;;;;13.75;12.45;;;30.40;99.90;;;;;;4207016;28;20080;-76
2022/09/04 02:19:54;;;;;;;;;;;30.40;99.90;;;;;;4210549;28;20044;-76
2022/09/04 02:22:23;;;;;;;15.23;13.63;;;30.60;99.90;;;;;;4210148;28;19920;-76
2022/09/04 02:25:00;;;;;;;14.82;13.20;;;30.60;99.90;;;;;;4210012;28;20044;-75
2022/09/04 02:27:26;;;;;;;15.02;13.45;;;30.50;99.90;;;;;;4204588;28;20098;-72
2022/09/04 02:29:49;;;;;;;16.13;12.63;;;30.40;99.90;;;;;;4206978;28;20158;-74
2022/09/04 02:32:11;;;;;;;14.55;13.07;;;30.50;99.90;;;;;;4207506;28;20056;-74
2022/09/04 02:34:39;;;;;;;14.50;13.00;;;30.60;99.90;;;;;;4209747;28;20051;-72
2022/09/04 02:37:16;;;;;;;13.93;12.45;;;30.80;99.90;;;;;;4210713;28;20109;-72
2022/09/04 02:40:11;;;;;;;14.32;13.02;;;30.80;99.90;;;;;;4210686;28;20052;-74
2022/09/04 02:42:52;;;;;;;14.50;12.52;;;31.00;99.90;;;;;;4211013;28;20135;-73
2022/09/04 02:45:09;;;;;;;;;;;31.10;99.90;;;;;;4211111;28;20664;-72
2022/09/04 02:47:46;;;;;;;18.85;12.00;;;31.20;99.90;;;;;;4212261;28;19992;-73
2022/09/04 02:50:19;;;;;;;13.80;12.32;;;31.10;99.90;;;;;;4199344;28;20146;-74
2022/09/04 02:53:11;;;;;;;13.35;11.95;;;31.00;99.90;;;;;;4210470;28;20109;-74
2022/09/04 02:55:53;;;;;;;12.75;11.35;;;31.10;99.90;;;;;;4197235;28;20076;-73
2022/09/04 02:58:46;;;;;;;12.55;11.23;;;31.00;99.90;;;;;;4197396;28;20529;-74
2022/09/04 03:01:11;;;;;;;12.30;11.00;;;31.10;99.90;;;;;;4195735;28;20037;-73
2022/09/04 03:03:31;;;;;;;12.35;11.02;;;31.20;99.90;;;;;;4197322;28;20123;-72
2022/09/04 03:06:00;;;;;;;14.43;12.13;;;31.30;99.90;;;;;;4197079;28;20041;-73
2022/09/04 03:08:23;;;;;;;14.43;12.95;;;30.90;99.90;;;;;;4195842;28;20578;-73
2022/09/04 03:11:04;;;;;;;13.82;12.20;;;30.90;99.90;;;;;;4206702;28;20048;-73
2022/09/04 03:13:43;;;;;;;13.05;11.75;;;30.70;99.90;;;;;;4211890;28;20036;-73
2022/09/04 03:16:28;;;;;;;12.82;11.63;;;31.10;99.90;;;;;;4226163;28;20062;-74
2022/09/04 03:19:12;;;;;;;14.10;11.02;;;31.30;99.90;;;;;;4211507;28;20440;-74
2022/09/04 03:21:49;;;;;;;14.23;11.82;;;31.50;99.90;;;;;;4210842;28;20054;-74
2022/09/04 03:24:02;;;;;;;14.15;11.77;;;31.50;99.90;;;;;;4212684;28;20043;-73
2022/09/04 03:26:28;;;;;;;11.45;10.05;;;31.30;99.90;;;;;;4211629;28;20098;-74
2022/09/04 03:28:51;;;;;;;12.30;11.00;;;31.30;99.90;;;;;;4212595;28;20052;-74
2022/09/04 03:31:24;;;;;;;11.98;10.35;;;31.10;99.90;;;;;;4209329;28;20044;-73
2022/09/04 03:33:46;;;;;;;12.15;11.05;;;31.30;99.90;;;;;;4207981;28;20512;-75
2022/09/04 03:36:07;;;;;;;12.50;10.98;;;31.60;99.90;;;;;;4211588;28;20071;-74
2022/09/04 03:38:22;;;;;;;11.75;10.65;;;31.40;99.90;;;;;;4206271;28;20130;-72
2022/09/04 03:41:03;;;;;;;12.27;10.98;;;31.30;99.90;;;;;;4212218;28;20048;-73
2022/09/04 03:43:43;;;;;;;11.85;10.65;;;31.10;99.90;;;;;;4212546;28;20047;-73
2022/09/04 03:46:30;;;;;;;11.25;10.20;;;31.20;99.90;;;;;;4209161;28;20407;-72
2022/09/04 03:49:10;;;;;;;12.27;10.75;;;31.50;99.90;;;;;;4177159;28;20056;-73
2022/09/04 03:51:35;;;;;;;10.98;9.98;;;31.70;99.90;;;;;;4211598;28;20055;-74
2022/09/04 03:53:58;;;;;;;11.82;10.23;;;31.70;99.90;;;;;;4209504;28;20032;-74
2022/09/04 03:56:28;;;;;;;11.57;10.27;;;31.60;99.90;;;;;;4208052;28;20067;-74
2022/09/04 03:59:12;;;;;;;10.98;9.98;;;31.40;99.90;;;;;;4210515;28;20071;-73
2022/09/04 04:01:42;;;;;;;12.30;10.40;;;31.30;99.90;;;;;;4211626;28;20426;-73
2022/09/04 04:04:26;;;;;;;15.25;10.10;;;31.40;99.90;;;;;;4210693;28;20427;-71
2022/09/04 04:07:06;;;;;;;11.35;10.25;;;31.50;99.90;;;;;;4209625;28;20059;-72
2022/09/04 04:09:50;;;;;;;11.23;9.98;;;31.70;99.90;;;;;;4210551;28;20048;-72
2022/09/04 04:12:26;;;;;;;12.35;10.02;;;31.80;99.90;;;;;;4211621;28;20056;-72
2022/09/04 04:15:04;;;;;;;12.40;9.82;;;31.80;99.90;;;;;;4209250;28;20044;-72
2022/09/04 04:17:47;;;;;;;11.57;10.25;;;31.70;99.90;;;;;;4212247;28;20130;-72
2022/09/04 04:20:17;;;;;;;10.48;9.32;;;31.80;99.70;;;;;;4210968;28;20055;-72
2022/09/04 04:23:01;;;;;;;10.45;8.98;;;31.90;99.40;;;;;;4210365;28;20032;-73
2022/09/04 04:25:38;;;;;;;9.60;8.43;;;31.90;98.60;;;;;;4209777;28;20040;-73
2022/09/04 04:28:09;;;;;;;11.57;8.82;;;32.00;98.90;;;;;;4202296;28;20078;-73
2022/09/04 04:30:16;;;;;;;9.73;8.30;;;32.20;98.80;;;;;;4210857;28;20048;-73
2022/09/04 04:32:49;;;;;;;10.10;9.10;;;32.40;98.10;;;;;;4210723;28;20109;-73
2022/09/04 04:35:27;;;;;;;8.83;8.03;;;32.30;98.20;;;;;;4212308;28;20071;-72
2022/09/04 04:38:04;;;;;;;9.95;8.60;;;32.10;97.80;;;;;;4194341;28;20084;-71
2022/09/04 04:40:46;;;;;;;13.88;9.98;;;32.10;97.40;;;;;;4209321;28;20388;-73
2022/09/04 04:43:19;;;;;;;14.15;9.00;;;32.10;98.00;;;;;;4210514;28;20095;-71
2022/09/04 04:46:11;;;;;;;12.45;9.65;;;32.10;97.80;;;;;;4212083;28;20082;-71
2022/09/04 04:48:53;;;;;;;10.38;8.02;;;32.20;98.10;;;;;;4211131;28;20052;-71
2022/09/04 04:51:16;;;;;;;12.05;9.07;;;32.20;97.80;;;;;;4211371;28;20403;-71
2022/09/04 04:53:42;;;;;;;9.85;8.85;;;32.10;98.10;;;;;;4212090;28;20589;-71
2022/09/04 04:56:03;;;;;;;16.38;11.90;;;32.10;98.10;;;;;;4211882;28;20093;-71
2022/09/04 04:58:43;;;;;;;21.35;14.77;;;32.20;98.00;;;;;;4212003;28;20830;-72
2022/09/04 05:01:15;;;;;;;10.85;9.55;;;32.10;98.50;;;;;;4211517;28;20044;-72
2022/09/04 05:03:47;;;;;;;9.50;8.57;;;32.10;97.90;;;;;;4224104;28;20047;-73
2022/09/04 05:06:25;;;;;;;9.90;8.90;;;32.10;97.80;;;;;;4210755;28;20040;-73
2022/09/04 05:08:44;;;;;;;20.95;13.52;;;32.20;98.00;;;;;;4209896;28;20109;-73
2022/09/04 05:10:57;;;;;;;10.35;9.00;;;32.10;97.80;;;;;;4209102;28;20048;-73
2022/09/04 05:13:24;;;;;;;11.15;8.95;;;32.20;97.90;;;;;;4208549;28;20079;-72
2022/09/04 05:15:55;;;;;;;9.32;8.45;;;32.10;98.00;;;;;;4209988;28;20056;-72
2022/09/04 05:18:32;;;;;;;9.00;8.10;;;32.10;97.80;;;;;;4210078;28;20044;-72
2022/09/04 05:20:52;;;;;;;9.10;8.30;;;32.00;97.40;;;;;;4207995;28;20553;-72
2022/09/04 05:23:36;;;;;;;9.93;8.68;;;32.00;96.80;;;;;;4207958;28;20040;-73
2022/09/04 05:25:48;;;;;;;12.10;9.65;;;32.00;97.30;;;;;;4209014;28;20095;-72
2022/09/04 05:28:17;;;;;;;10.80;9.68;;;32.00;98.00;;;;;;4209314;28;20036;-72
2022/09/04 05:30:40;;;;;;;12.20;9.55;;;32.00;98.10;;;;;;4208223;28;20056;-72
2022/09/04 05:33:01;;;;;;;10.57;9.48;;;32.00;98.60;;;;;;4208579;28;20048;-73
2022/09/04 05:35:19;;;;;;;9.65;8.75;;;32.00;99.30;;;;;;4189482;28;20048;-72
2022/09/04 05:37:49;;;;;;;10.50;9.48;;;32.00;99.30;;;;;;4206166;28;20746;-73
2022/09/04 05:40:14;;;;;;;10.35;9.35;;;32.00;99.30;;;;;;4206232;28;20078;-74
2022/09/04 05:42:50;;;;;;;10.48;9.18;;;32.00;99.30;;;;;;4206560;28;20032;-74
2022/09/04 05:45:34;;;;;;;10.98;9.88;;;32.10;99.80;;;;;;4207516;28;20063;-74
2022/09/04 05:48:07;;;;;;;10.90;9.80;;;32.00;99.90;;;;;;4208515;28;20055;-72
2022/09/04 05:50:53;;;;;;;12.17;10.30;;;32.10;99.90;;;;;;4207787;28;20052;-69
2022/09/04 05:53:33;;;;;;;12.60;11.30;;;32.00;99.90;;;;;;4210162;28;20052;-70
2022/09/04 05:56:02;;;;;;;14.00;10.90;;;31.90;99.90;;;;;;4208855;28;20048;-71
2022/09/04 05:58:39;;;;;;;15.48;12.57;;;31.80;99.90;;;;;;4208681;28;20627;-71
2022/09/04 06:01:00;;;;;;;13.43;11.73;;;31.80;99.90;;;;;;4207281;28;20596;-71
2022/09/04 06:03:29;;;;;;;13.15;11.38;;;31.70;99.90;;;;;;4208735;28;20064;-70
2022/09/04 06:06:02;;;;;;;11.35;10.35;;;31.70;99.90;;;;;;4210046;28;20119;-73
2022/09/04 06:08:40;;;;;;;12.73;10.90;;;31.80;99.90;;;;;;4208208;28;20044;-73
2022/09/04 06:11:01;;;;;;;12.88;10.88;;;31.80;99.90;;;;;;4207655;28;20498;-71
2022/09/04 06:13:37;;;;;;;11.57;10.30;;;31.80;99.90;;;;;;4208568;28;20103;-73
2022/09/04 06:16:14;;;;;;;10.98;9.90;;;31.80;99.90;;;;;;4209818;28;20076;-73
2022/09/04 06:18:46;;;;;;;10.77;9.77;;;31.90;99.90;;;;;;4209775;28;20044;-72
2022/09/04 06:21:15;;;;;;;11.68;10.48;;;31.90;99.90;;;;;;4210382;28;20127;-72
2022/09/04 06:23:50;;;;;;;13.40;9.75;;;31.90;99.90;;;;;;4211210;28;20113;-74
2022/09/04 06:26:34;;;;;;;11.38;9.93;;;32.00;99.90;;;;;;4213984;28;20047;-72
2022/09/04 06:29:07;;;;;;;11.77;10.48;;;32.00;99.90;;;;;;4212265;28;20044;-71
2022/09/04 06:31:50;;;;;;;11.43;9.65;;;32.00;99.90;;;;;;4212200;28;20597;-72
2022/09/04 06:34:33;;;;;;;14.05;10.90;;;32.00;99.90;;;;;;4211348;28;20560;-71
2022/09/04 06:36:55;;;;;;;12.63;10.30;;;32.10;99.90;;;;;;4212171;28;20052;-72
2022/09/04 06:39:34;;;;;;;11.45;10.25;;;32.00;99.90;;;;;;4211524;28;20043;-72
2022/09/04 06:41:55;;;;;;;10.80;9.80;;;32.30;99.90;;;;;;4207425;28;20044;-73
2022/09/04 06:44:27;;;;;;;10.15;9.07;;;32.70;99.90;;;;;;4211896;28;20595;-71
2022/09/04 06:46:44;;;;;;;16.52;10.88;;;32.80;99.90;;;;;;4213261;28;20155;-72
2022/09/04 06:49:13;;;;;;;17.20;10.80;;;33.00;99.90;;;;;;4226758;28;20498;-72
2022/09/04 06:51:44;;;;;;;11.95;9.45;;;33.20;99.90;;;;;;4212802;28;20048;-73
2022/09/04 06:54:26;;;;;;;10.00;8.90;;;33.20;99.90;;;;;;4211210;28;20075;-73
2022/09/04 06:57:13;;;;;;;10.38;9.23;;;33.30;99.90;;;;;;4211589;28;20051;-73
2022/09/04 06:59:44;;;;;;;10.38;8.20;;;33.40;99.90;;;;;;4176540;28;20052;-72
2022/09/04 07:02:21;;;;;;;16.92;10.30;;;33.60;99.90;;;;;;4226183;27;20081;-73
2022/09/04 07:04:52;;;;;;;17.27;10.05;;;33.70;99.70;;;;;;4209195;28;20078;-73
2022/09/04 07:07:36;;;;;;;12.95;9.30;;;33.60;99.20;;;;;;4210236;28;20131;-72
2022/09/04 07:09:48;;;;;;;11.27;9.60;;;33.50;99.00;;;;;;4165980;28;20072;-71
2022/09/04 07:12:17;;;;;;;10.32;8.35;;;33.40;99.00;;;;;;4207828;28;20048;-72
2022/09/04 07:14:40;;;;;;;9.90;8.52;;;33.50;98.90;;;;;;4207903;28;20449;-70
2022/09/04 07:17:10;;;;;;;9.68;8.30;;;33.60;99.00;;;;;;4190982;28;20114;-70
2022/09/04 07:19:40;;;;;;;9.02;8.18;;;33.60;98.70;;;;;;4212489;28;20040;-71
2022/09/04 07:22:10;;;;;;;8.88;7.78;;;33.60;99.20;;;;;;4226227;28;20044;-72
2022/09/04 07:24:48;;;;;;;9.27;8.48;;;33.60;99.20;;;;;;4211715;28;20051;-71
2022/09/04 07:27:15;;;;;;;11.68;7.72;;;33.60;98.70;;;;;;4210044;28;20110;-72
2022/09/04 07:29:38;;;;;;;8.45;7.75;;;33.60;98.90;;;;;;4223999;28;20614;-72
2022/09/04 07:31:51;;;;;;;9.40;8.10;;;33.70;99.00;;;;;;4210766;28;20110;-72
2022/09/04 07:34:11;;;;;;;8.68;7.85;;;33.60;98.90;;;;;;4206221;28;20036;-73
2022/09/04 07:36:33;;;;;;;8.63;7.82;;;33.60;99.10;;;;;;4209075;28;20090;-71
2022/09/04 07:39:02;;;;;;;8.63;7.72;;;33.60;99.30;;;;;;4208238;28;20093;-71
2022/09/04 07:41:15;;;;;;;9.05;8.13;;;33.50;99.30;;;;;;4208610;28;20040;-71
2022/09/04 07:44:03;;;;;;;9.80;8.63;;;33.60;99.40;;;;;;4208838;28;20066;-71
2022/09/04 07:46:19;;;;;;;8.98;8.05;;;33.50;99.40;;;;;;4207426;28;20442;-71
2022/09/04 07:48:38;;;;;;;9.02;8.13;;;33.60;99.30;;;;;;4209545;28;20056;-69
2022/09/04 07:51:10;;;;;;;9.48;8.57;;;33.70;99.00;;;;;;4210276;28;20043;-70
2022/09/04 07:53:46;;;;;;;13.35;11.05;;;33.60;99.20;;;;;;4210149;28;20048;-70
2022/09/04 07:56:17;;;;;;;11.25;9.52;;;33.60;98.50;;;;;;4209932;28;20052;-70
2022/09/04 07:58:59;;;;;;;10.70;8.57;;;33.60;98.50;;;;;;4209293;28;20078;-70
2022/09/04 08:01:27;;;;;;;10.13;9.13;;;33.70;98.20;;;;;;4210503;28;20044;-71
2022/09/04 08:04:04;;;;;;;10.82;9.25;;;33.80;98.30;;;;;;4210037;28;20052;-71
2022/09/04 08:06:41;;;;;;;10.98;9.57;;;34.00;97.60;;;;;;4190529;28;20047;-71
2022/09/04 08:09:25;;;;;;;11.02;8.65;;;34.00;97.80;;;;;;4208375;28;20044;-72
2022/09/04 08:11:53;;;;;;;10.13;8.63;;;34.00;98.00;;;;;;4209606;28;20071;-71
2022/09/04 08:14:31;;;;;;;9.52;8.52;;;34.00;98.00;;;;;;4211354;28;20502;-72
2022/09/04 08:17:02;;;;;;;10.43;9.32;;;34.10;98.00;;;;;;4210756;28;20128;-72
2022/09/04 08:19:21;;;;;;;10.57;9.40;;;34.20;98.00;;;;;;4209391;28;20147;-71
2022/09/04 08:21:28;;;;;;;10.75;9.65;;;34.20;97.60;;;;;;4208672;28;20071;-72
2022/09/04 08:23:52;;;;;;;10.55;9.45;;;34.30;97.30;;;;;;4211531;28;20063;-72
2022/09/04 08:26:29;;;;;;;10.33;9.30;;;34.20;97.40;;;;;;4210587;28;20143;-72
2022/09/04 08:28:59;;;;;;;10.70;9.60;;;34.20;97.50;;;;;;4212051;28;20123;-72
2022/09/04 08:31:28;;;;;;;10.98;9.88;;;34.00;97.30;;;;;;4192767;28;20646;-72
2022/09/04 08:33:59;;;;;;;11.18;9.27;;;33.80;97.10;;;;;;4198568;28;20064;-72
2022/09/04 08:36:30;;;;;;;10.75;9.75;;;33.70;97.10;;;;;;4176422;28;20080;-71
2022/09/04 08:39:03;;;;;;;11.52;9.27;;;33.50;97.80;;;;;;4210274;28;20048;-73
2022/09/04 08:41:37;;;;;;;10.98;9.82;;;33.50;97.80;;;;;;4211431;28;20072;-73
2022/09/04 08:44:21;;;;;;;11.35;9.65;;;33.40;97.70;;;;;;4194972;28;20040;-73
2022/09/04 08:47:06;;;;;;;10.68;9.68;;;33.50;97.80;;;;;;4195185;28;20075;-72
2022/09/04 08:49:43;;;;;;;12.77;9.65;;;33.40;97.70;;;;;;4193595;28;20052;-72
2022/09/04 08:52:20;;;;;;;11.25;9.50;;;33.50;97.70;;;;;;4206368;28;20036;-72
2022/09/04 08:54:56;;;;;;;10.88;9.10;;;33.40;97.50;;;;;;4211034;28;20070;-73
2022/09/04 08:57:17;;;;;;;10.98;9.88;;;33.30;97.50;;;;;;4211106;28;20048;-72
2022/09/04 08:59:57;;;;;;;11.43;9.82;;;33.30;97.60;;;;;;4210195;28;20376;-72
2022/09/04 09:02:39;;;;;;;10.07;9.15;;;33.40;97.50;;;;;;4194302;28;20059;-73
2022/09/04 09:05:12;;;;;;;10.60;9.60;;;33.40;97.40;;;;;;4194242;28;20048;-73
2022/09/04 09:07:57;;;;;;;9.90;8.98;;;33.40;97.60;;;;;;4201307;28;20290;-73
2022/09/04 09:10:42;;;;;;;10.32;9.32;;;33.40;97.40;;;;;;4210616;28;20040;-73
2022/09/04 09:13:19;;;;;;;10.30;8.80;;;33.40;97.40;;;;;;4210431;28;20043;-73
2022/09/04 09:15:41;;;;;;;11.50;10.13;;;33.30;97.40;;;;;;4205545;28;20105;-73
2022/09/04 09:18:25;;;;;;;14.65;11.32;;;33.30;97.10;;;;;;4208974;28;20050;-73
2022/09/04 09:21:03;;;;;;;18.25;10.90;;;33.20;97.30;;;;;;4209579;28;20498;-74
2022/09/04 09:23:20;;;;;;;18.92;11.38;;;33.10;97.40;;;;;;4208676;28;20105;-74
2022/09/04 09:25:32;;;;;;;18.52;13.40;;;33.10;97.60;;;;;;4210031;28;20131;-72
2022/09/04 09:28:08;;;;;;;14.18;12.10;;;33.00;97.90;;;;;;4242709;27;20095;-72
2022/09/04 09:30:22;;;;;;;10.38;9.27;;;33.00;98.20;;;;;;4204976;28;20317;-73
2022/09/04 09:32:51;;;;;;;6.60;5.90;;;32.60;96.30;;;;;;4209407;28;20056;-72
2022/09/04 09:35:37;;;;;;;6.93;5.30;;;32.00;96.10;;;;;;4209095;28;20054;-73
2022/09/04 09:38:13;;;;;;;10.23;6.00;;;31.80;96.40;;;;;;4206791;28;20470;-73
2022/09/04 09:40:54;;;;;;;7.45;5.22;;;31.30;97.10;;;;;;4206676;28;20119;-72
2022/09/04 09:43:26;;;;;;;6.35;4.50;;;31.10;97.60;;;;;;4207693;28;20060;-72
2022/09/04 09:46:05;;;;;;;9.23;4.57;;;30.50;98.40;;;;;;4209233;28;20055;-73
2022/09/04 09:48:29;;;;;;;7.93;5.20;;;30.30;99.30;;;;;;4209360;28;20100;-71
2022/09/04 09:50:59;;;;;;;7.82;5.05;;;30.00;99.90;;;;;;4209860;28;20048;-71
2022/09/04 09:53:28;;;;;;;6.60;4.97;;;29.40;99.90;;;;;;4209047;28;20048;-73
2022/09/04 09:55:51;;;;;;;12.50;4.63;;;29.60;99.90;;;;;;4209269;28;20048;-72
2022/09/04 09:58:30;;;;;;;6.72;4.30;;;29.60;99.90;;;;;;4227933;28;20038;-72
2022/09/04 10:00:57;;;;;;;7.18;4.43;;;29.30;99.90;;;;;;4210286;28;20824;-72
2022/09/04 10:03:35;;;;;;;7.68;4.70;;;29.40;99.90;;;;;;4211504;28;20048;-71
2022/09/04 10:05:56;;;;;;;13.38;5.63;;;28.90;99.90;;;;;;4213431;28;20089;-72
2022/09/04 10:08:26;;;;;;;17.90;7.10;;;28.80;99.90;;;;;;4213908;28;20068;-72
2022/09/04 10:11:12;;;;;;;8.80;5.95;;;28.50;99.90;;;;;;4212568;28;20055;-72
2022/09/04 10:13:58;;;;;;;10.02;6.95;;;28.50;99.90;;;;;;4213486;28;20374;-70
2022/09/04 10:16:32;;;;;;;12.63;9.85;;;28.50;99.90;;;;;;4211641;28;20090;-70
2022/09/04 10:18:58;;;;;;;11.73;7.38;;;28.70;99.90;;;;;;4213103;28;20040;-72
2022/09/04 10:21:28;;;;;;;10.65;6.82;;;28.80;99.90;;;;;;4211834;28;20139;-70
2022/09/04 10:24:05;;;;;;;10.85;7.35;;;29.20;99.90;;;;;;4212389;28;20036;-69
2022/09/04 10:26:42;;;;;;;8.82;7.05;;;29.50;99.90;;;;;;4213334;28;20047;-70
2022/09/04 10:29:08;;;;;;;8.80;6.53;;;29.70;99.90;;;;;;4213323;28;20056;-72
2022/09/04 10:31:30;;;;;;;7.55;6.03;;;29.80;99.90;;;;;;4211588;28;20078;-70
2022/09/04 10:34:00;;;;;;;7.00;5.70;;;29.80;99.90;;;;;;4211666;28;20497;-74
2022/09/04 10:36:37;;;;;;;7.53;5.78;;;29.70;99.90;;;;;;4228732;28;20047;-72
2022/09/04 10:41:52;;;;;;;7.65;5.50;;;29.90;99.90;;;;;;4212553;28;20135;-73
2022/09/04 10:44:29;;;;;;;6.75;4.93;;;29.90;99.90;;;;;;4209520;28;20044;-72
2022/09/04 10:46:59;;;;;;;8.82;5.30;;;29.90;99.90;;;;;;4211853;28;20040;-71
2022/09/04 10:49:34;;;;;;;8.27;5.63;;;30.00;99.90;;;;;;4227386;28;20113;-71
2022/09/04 10:52:12;;;;;;;9.32;5.93;;;30.00;99.90;;;;;;4212787;28;20064;-71
2022/09/04 10:54:49;;;;;;;9.13;5.95;;;30.00;99.90;;;;;;4211972;28;20140;-71
2022/09/04 10:57:36;;;;;;;7.47;5.40;;;30.00;99.90;;;;;;4212517;28;20044;-72
2022/09/04 11:00:05;;;;;;;9.35;6.28;;;30.10;99.90;;;;;;4185562;28;20079;-70
2022/09/04 11:02:39;;;;;;;21.77;17.37;;;30.00;99.90;;;;;;4211106;28;20477;-71
2022/09/04 11:05:17;;;;;;;20.45;16.52;;;30.00;99.90;;;;;;4211246;28;20052;-72
2022/09/04 11:07:42;;;;;;;11.57;8.90;;;30.00;99.90;;;;;;4212220;28;20044;-72
2022/09/04 11:10:19;;;;;;;10.70;6.20;;;29.90;99.90;;;;;;4212787;28;20044;-72
2022/09/04 11:13:09;;;;;;;8.15;6.32;;;29.90;99.90;;;;;;4211121;28;20082;-72
2022/09/04 11:15:42;;;;;;;8.07;6.38;;;29.80;99.90;;;;;;4210873;28;20090;-71
2022/09/04 11:18:14;;;;;;;11.50;6.60;;;29.80;99.90;;;;;;4176214;28;20095;-72
2022/09/04 11:20:45;;;;;;;10.88;7.00;;;29.70;99.90;;;;;;4211054;28;20491;-71
2022/09/04 11:23:14;;;;;;;9.32;6.60;;;29.70;99.90;;;;;;4212928;28;20040;-71
2022/09/04 11:25:46;;;;;;;13.05;7.15;;;29.70;99.90;;;;;;4211361;28;20078;-72
2022/09/04 11:28:14;;;;;;;14.07;7.95;;;29.70;99.90;;;;;;4190942;28;20501;-73
2022/09/04 11:30:31;;;;;;;10.45;6.82;;;29.60;99.90;;;;;;4211860;28;20670;-73
2022/09/04 11:33:00;;;;;;;10.13;7.35;;;29.70;99.90;;;;;;4210700;28;20786;-72
2022/09/04 11:35:28;;;;;;;7.97;6.15;;;29.70;99.90;;;;;;4213027;28;20671;-73
2022/09/04 11:37:57;;;;;;;8.75;6.40;;;29.70;99.90;;;;;;4211611;28;20045;-73
2022/09/04 11:40:21;;;;;;;9.48;6.63;;;29.70;99.90;;;;;;4213096;28;20144;-72
2022/09/04 11:43:09;;;;;;;9.35;6.20;;;29.70;99.90;;;;;;4213361;28;20402;-72
2022/09/04 11:45:38;;;;;;;14.90;10.60;;;29.70;99.90;;;;;;4212988;28;20127;-72
2022/09/04 11:48:12;;;;;;;13.20;10.52;;;29.60;99.90;;;;;;4212896;28;20040;-72
2022/09/04 11:51:00;;;;;;;11.73;10.40;;;29.60;99.90;;;;;;4213074;28;20071;-69
2022/09/04 11:53:25;;;;;;;10.30;8.25;;;29.50;99.90;;;;;;4213032;28;20059;-72
2022/09/04 11:55:57;;;;;;;8.50;6.93;;;29.50;99.90;;;;;;4212816;28;20055;-69
2022/09/04 11:58:27;;;;;;;11.32;8.77;;;29.50;99.90;;;;;;4212854;28;20079;-71
2022/09/04 12:00:58;;;;;;;11.52;7.15;;;29.40;99.90;;;;;;4212624;28;20063;-72
2022/09/04 12:03:37;;;;;;;11.32;7.07;;;29.50;99.90;;;;;;4212823;28;20048;-72
2022/09/04 12:06:02;;;;;;;7.90;6.05;;;29.40;99.90;;;;;;4212670;28;20048;-71
2022/09/04 12:08:40;;;;;;;12.27;6.20;;;29.50;99.90;;;;;;4213065;28;20044;-71
2022/09/04 12:11:06;;;;;;;7.82;6.55;;;29.50;99.90;;;;;;4198511;28;20055;-72
2022/09/04 12:13:38;;;;;;;9.32;6.28;;;29.50;99.90;;;;;;4211136;28;20044;-71
2022/09/04 12:15:59;;;;;;;9.30;8.02;;;29.50;99.90;;;;;;4210712;28;20143;-71
2022/09/04 12:18:40;;;;;;;10.23;8.95;;;29.50;99.90;;;;;;4209007;28;20093;-71
2022/09/04 12:21:18;;;;;;;13.27;11.90;;;29.40;99.90;;;;;;4205713;28;20129;-70
2022/09/04 12:23:56;;;;;;;16.88;10.43;;;29.40;99.90;;;;;;4212002;28;20085;-70
2022/09/04 12:26:40;;;;;;;12.00;10.13;;;29.40;99.90;;;;;;4211351;28;20355;-69
2022/09/04 12:29:19;;;;;;;11.80;9.65;;;29.40;99.90;;;;;;4192990;28;20114;-72
2022/09/04 12:31:50;;;;;;;13.73;9.50;;;29.40;99.90;;;;;;4200239;28;20151;-69
2022/09/04 12:34:30;;;;;;;8.68;7.28;;;29.40;99.90;;;;;;4202114;28;20072;-69
2022/09/04 12:36:52;;;;;;;8.15;7.35;;;29.40;99.90;;;;;;4204220;28;20086;-69
2022/09/04 12:39:25;;;;;;;10.95;8.00;;;29.40;99.90;;;;;;4202224;28;20052;-69
2022/09/04 12:41:58;;;;;;;18.05;14.07;;;29.40;99.90;;;;;;4207850;28;20082;-69
2022/09/04 12:44:20;;;;;;;16.15;11.75;;;29.40;99.90;;;;;;4209442;28;20788;-69
2022/09/04 12:47:04;;;;;;;13.93;10.65;;;29.40;99.90;;;;;;4209077;28;20066;-70
2022/09/04 12:49:41;;;;;;;10.07;7.55;;;29.30;99.90;;;;;;4209624;28;20052;-70
2022/09/04 12:51:55;;;;;;;9.70;7.35;;;29.40;99.90;;;;;;4208991;28;20623;-70
2022/09/04 12:54:13;;;;;;;8.68;6.13;;;29.40;99.90;;;;;;4209437;28;20163;-71
2022/09/04 12:56:42;;;;;;;9.88;6.75;;;29.30;99.90;;;;;;4208741;28;20051;-70
2022/09/04 12:59:30;;;;;;;11.27;6.07;;;29.30;99.90;;;;;;4209310;28;20109;-69
2022/09/04 13:02:00;;;;;;;6.75;5.25;;;29.30;99.90;;;;;;4208486;28;20043;-71